createdAt,value
2022-08-25T00:01:54.377Z,22.25
2022-08-25T00:04:24.528Z,22.23
2022-08-25T00:06:59.336Z,22.24
2022-08-25T00:09:29.387Z,22.21
2022-08-25T00:11:57.418Z,22.15
2022-08-25T00:14:33.587Z,22.12
2022-08-25T00:17:03.419Z,22.11
2022-08-25T00:22:19.831Z,22.04
2022-08-25T00:24:47.790Z,22.00
2022-08-25T00:27:15.793Z,22.02
2022-08-25T00:29:43.741Z,22.04
2022-08-25T00:32:13.346Z,22.06
2022-08-25T00:34:41.314Z,22.04
2022-08-25T00:37:10.451Z,22.04
2022-08-25T00:39:39.670Z,22.03
2022-08-25T00:42:15.897Z,22.01
2022-08-25T00:44:45.105Z,22.00
2022-08-25T00:47:14.726Z,21.98
2022-08-25T00:49:46.053Z,21.92
2022-08-25T00:52:17.483Z,21.89
2022-08-25T00:54:51.230Z,21.91
2022-08-25T00:57:34.874Z,21.87
2022-08-25T01:00:08.073Z,21.88
2022-08-25T01:02:37.968Z,22.01
2022-08-25T01:05:07.157Z,21.89
2022-08-25T01:07:35.249Z,21.81
2022-08-25T01:10:03.625Z,21.81
2022-08-25T01:12:31.744Z,21.79
2022-08-25T01:14:59.937Z,21.77
2022-08-25T01:17:35.098Z,21.71
2022-08-25T01:20:05.691Z,21.75
2022-08-25T01:22:35.160Z,21.71
2022-08-25T01:25:06.968Z,21.70
2022-08-25T01:27:34.930Z,21.69
2022-08-25T01:30:02.919Z,21.69
2022-08-25T01:32:34.976Z,21.73
2022-08-25T01:35:03.033Z,21.68
2022-08-25T01:37:30.988Z,21.59
2022-08-25T01:40:00.381Z,21.44
2022-08-25T01:42:43.501Z,21.42
2022-08-25T01:45:11.547Z,21.42
2022-08-25T01:47:39.883Z,21.48
2022-08-25T01:50:08.954Z,21.49
2022-08-25T01:52:51.054Z,21.34
2022-08-25T01:55:20.557Z,21.20
2022-08-25T01:57:48.609Z,21.18
2022-08-25T02:00:18.654Z,21.11
2022-08-25T02:02:47.293Z,21.09
2022-08-25T02:05:23.574Z,21.14
2022-08-25T02:07:51.943Z,21.27
2022-08-25T02:10:22.545Z,21.28
2022-08-25T02:12:51.745Z,21.23
2022-08-25T02:15:22.539Z,21.18
2022-08-25T02:17:50.552Z,21.18
2022-08-25T02:20:19.080Z,21.19
2022-08-25T02:22:56.751Z,21.20
2022-08-25T02:25:26.576Z,21.19
2022-08-25T02:27:54.663Z,21.19
2022-08-25T02:30:22.742Z,21.20
2022-08-25T02:35:19.547Z,21.15
2022-08-25T02:37:47.581Z,21.13
2022-08-25T02:40:15.560Z,21.14
2022-08-25T02:42:45.378Z,21.17
2022-08-25T02:45:14.040Z,21.12
2022-08-25T02:47:42.049Z,21.13
2022-08-25T02:50:11.061Z,21.12
2022-08-25T02:52:39.948Z,21.11
2022-08-25T02:55:12.855Z,21.09
2022-08-25T02:57:42.029Z,21.05
2022-08-25T03:00:14.612Z,21.01
2022-08-25T03:02:43.250Z,21.03
2022-08-25T03:05:12.907Z,21.05
2022-08-25T03:07:41.486Z,21.03
2022-08-25T03:10:13.394Z,21.01
2022-08-25T03:12:42.473Z,20.99
2022-08-25T03:15:15.426Z,20.96
2022-08-25T03:17:45.444Z,20.94
2022-08-25T03:20:15.419Z,20.93
2022-08-25T03:22:43.794Z,20.96
2022-08-25T03:25:29.941Z,20.94
2022-08-25T03:27:58.276Z,20.92
2022-08-25T03:30:28.445Z,20.92
2022-08-25T03:32:56.554Z,20.89
2022-08-25T03:35:24.702Z,20.82
2022-08-25T03:37:56.718Z,20.81
2022-08-25T03:40:25.022Z,20.78
2022-08-25T03:42:53.069Z,20.82
2022-08-25T03:45:21.157Z,20.79
2022-08-25T03:47:52.046Z,20.78
2022-08-25T03:50:22.042Z,20.80
2022-08-25T03:52:53.808Z,20.76
2022-08-25T03:55:24.041Z,20.73
2022-08-25T03:57:52.107Z,20.71
2022-08-25T04:00:20.825Z,20.67
2022-08-25T04:02:50.593Z,20.65
2022-08-25T04:05:20.308Z,20.61
2022-08-25T04:07:48.274Z,20.61
2022-08-25T04:10:17.636Z,20.59
2022-08-25T04:12:45.582Z,20.61
2022-08-25T04:15:13.625Z,20.58
2022-08-25T04:17:42.290Z,20.60
2022-08-25T04:20:14.287Z,20.58
2022-08-25T04:22:44.933Z,20.58
2022-08-25T04:25:13.561Z,20.60
2022-08-25T04:27:42.151Z,20.59
2022-08-25T04:30:11.470Z,20.61
2022-08-25T04:32:39.464Z,20.58
2022-08-25T04:35:08.773Z,20.58
2022-08-25T04:37:38.180Z,20.59
2022-08-25T04:40:06.852Z,20.57
2022-08-25T04:42:35.347Z,20.61
2022-08-25T04:45:04.346Z,20.60
2022-08-25T04:47:32.377Z,20.55
2022-08-25T04:50:00.428Z,20.28
2022-08-25T04:52:28.479Z,20.05
2022-08-25T04:54:57.806Z,20.00
2022-08-25T04:57:25.743Z,20.04
2022-08-25T04:59:54.234Z,20.15
2022-08-25T05:02:22.465Z,20.10
2022-08-25T05:04:50.446Z,20.17
2022-08-25T05:07:18.428Z,20.27
2022-08-25T05:09:46.443Z,20.30
2022-08-25T05:12:15.759Z,20.29
2022-08-25T05:14:43.938Z,20.32
2022-08-25T05:17:11.953Z,20.36
2022-08-25T05:19:39.934Z,20.39
2022-08-25T05:22:07.897Z,20.42
2022-08-25T05:24:35.895Z,20.42
2022-08-25T05:27:04.107Z,20.46
2022-08-25T05:29:33.496Z,20.47
2022-08-25T05:32:01.538Z,20.48
2022-08-25T05:34:30.254Z,20.46
2022-08-25T05:37:00.202Z,20.45
2022-08-25T05:39:32.338Z,20.45
2022-08-25T05:42:00.303Z,20.44
2022-08-25T05:44:28.568Z,20.45
2022-08-25T05:46:57.986Z,20.43
2022-08-25T05:49:26.018Z,20.41
2022-08-25T05:51:54.025Z,20.41
2022-08-25T05:54:21.992Z,20.46
2022-08-25T05:56:50.191Z,20.47
2022-08-25T05:59:18.501Z,20.53
2022-08-25T06:02:03.762Z,20.57
2022-08-25T06:04:33.629Z,20.58
2022-08-25T06:07:01.666Z,20.54
2022-08-25T06:09:29.675Z,20.55
2022-08-25T06:11:57.781Z,20.56
2022-08-25T06:14:27.450Z,20.55
2022-08-25T06:16:55.468Z,20.52
2022-08-25T06:19:23.910Z,20.58
2022-08-25T06:21:56.512Z,20.62
2022-08-25T06:24:26.026Z,20.73
2022-08-25T06:26:54.481Z,20.78
2022-08-25T06:29:22.693Z,20.75
2022-08-25T06:31:50.979Z,20.74
2022-08-25T06:34:19.655Z,20.80
2022-08-25T06:36:51.807Z,20.80
2022-08-25T06:39:21.622Z,20.84
2022-08-25T06:41:52.939Z,20.86
2022-08-25T06:44:21.040Z,20.91
2022-08-25T06:46:49.214Z,20.96
2022-08-25T06:49:17.252Z,21.05
2022-08-25T06:51:45.916Z,21.14
2022-08-25T06:54:14.100Z,21.16
2022-08-25T06:56:43.762Z,21.25
2022-08-25T06:59:12.159Z,21.47
2022-08-25T07:01:40.424Z,21.56
2022-08-25T07:04:13.169Z,21.58
2022-08-25T07:06:41.888Z,21.64
2022-08-25T07:09:10.862Z,21.67
2022-08-25T07:11:39.437Z,21.75
2022-08-25T07:14:10.980Z,21.89
2022-08-25T07:16:40.513Z,22.11
2022-08-25T07:19:09.664Z,22.19
2022-08-25T07:21:45.889Z,22.35
2022-08-25T07:24:15.195Z,22.52
2022-08-25T07:26:43.987Z,22.63
2022-08-25T07:29:16.347Z,22.70
2022-08-25T07:31:46.012Z,22.81
2022-08-25T07:34:31.728Z,22.92
2022-08-25T07:37:00.204Z,22.90
2022-08-25T07:39:29.145Z,22.89
2022-08-25T07:41:57.275Z,22.90
2022-08-25T07:44:28.048Z,22.95
2022-08-25T07:46:57.334Z,23.09
2022-08-25T07:49:35.943Z,23.16
2022-08-25T07:52:07.838Z,23.13
2022-08-25T07:54:38.442Z,23.15
2022-08-25T07:57:08.744Z,23.22
2022-08-25T07:59:41.192Z,23.27
2022-08-25T08:02:16.030Z,23.27
2022-08-25T08:04:49.381Z,23.20
2022-08-25T08:07:19.700Z,23.28
2022-08-25T08:09:55.812Z,23.36
2022-08-25T08:12:24.520Z,23.39
2022-08-25T08:14:54.376Z,23.48
2022-08-25T08:17:22.736Z,23.50
2022-08-25T08:19:50.817Z,23.59
2022-08-25T08:22:19.561Z,23.70
2022-08-25T08:24:54.181Z,23.81
2022-08-25T08:27:23.041Z,23.82
2022-08-25T08:29:51.155Z,23.90
2022-08-25T08:32:20.832Z,23.93
2022-08-25T08:34:53.582Z,23.97
2022-08-25T08:37:22.879Z,23.88
2022-08-25T08:39:52.647Z,23.92
2022-08-25T08:42:39.721Z,23.87
2022-08-25T08:45:18.449Z,23.92
2022-08-25T08:48:00.201Z,23.88
2022-08-25T08:50:35.753Z,24.00
2022-08-25T08:53:10.286Z,24.13
2022-08-25T08:55:41.429Z,24.20
2022-08-25T08:58:12.950Z,24.26
2022-08-25T09:00:52.405Z,24.29
2022-08-25T09:03:32.904Z,24.31
2022-08-25T09:06:04.598Z,24.41
2022-08-25T09:08:35.263Z,24.42
2022-08-25T09:11:11.290Z,24.53
2022-08-25T09:14:04.472Z,24.66
2022-08-25T09:16:58.163Z,24.73
2022-08-25T09:19:59.852Z,24.69
2022-08-25T09:22:41.009Z,24.74
2022-08-25T09:25:22.003Z,24.69
2022-08-25T09:28:06.264Z,24.72
2022-08-25T09:30:45.290Z,24.87
2022-08-25T09:33:21.094Z,24.96
2022-08-25T09:35:53.673Z,25.04
2022-08-25T09:38:22.433Z,25.13
2022-08-25T09:40:53.403Z,25.18
2022-08-25T09:43:30.246Z,25.26
2022-08-25T09:46:02.385Z,25.37
2022-08-25T09:48:39.775Z,25.44
2022-08-25T09:51:19.797Z,25.46
2022-08-25T09:53:53.568Z,25.57
2022-08-25T09:56:24.009Z,25.64
2022-08-25T09:58:58.199Z,25.65
2022-08-25T10:01:34.820Z,25.69
2022-08-25T10:04:04.951Z,25.76
2022-08-25T10:06:44.120Z,25.87
2022-08-25T10:09:26.684Z,25.94
2022-08-25T10:11:57.739Z,26.07
2022-08-25T10:14:35.057Z,26.23
2022-08-25T10:17:27.625Z,26.27
2022-08-25T10:20:17.257Z,26.36
2022-08-25T10:22:48.274Z,26.38
2022-08-25T10:25:26.705Z,26.45
2022-08-25T10:28:05.925Z,26.53
2022-08-25T10:30:53.586Z,26.52
2022-08-25T10:33:34.405Z,26.55
2022-08-25T10:36:13.216Z,26.57
2022-08-25T10:38:45.381Z,26.71
2022-08-25T10:41:27.935Z,26.82
2022-08-25T10:44:05.015Z,26.92
2022-08-25T10:46:41.466Z,26.96
2022-08-25T10:49:19.631Z,27.01
2022-08-25T10:51:59.154Z,27.12
2022-08-25T10:54:47.771Z,27.22
2022-08-25T10:57:23.769Z,27.29
2022-08-25T11:00:05.912Z,27.29
2022-08-25T11:03:01.290Z,27.37
2022-08-25T11:05:33.082Z,27.57
2022-08-25T11:08:09.659Z,27.64
2022-08-25T11:10:46.080Z,27.65
2022-08-25T11:13:26.881Z,27.69
2022-08-25T11:16:16.683Z,27.82
2022-08-25T11:18:56.571Z,27.83
2022-08-25T11:21:32.818Z,27.86
2022-08-25T11:24:11.916Z,27.90
2022-08-25T11:26:55.052Z,27.90
2022-08-25T11:29:26.610Z,27.98
2022-08-25T11:31:55.456Z,28.02
2022-08-25T11:34:24.686Z,28.00
2022-08-25T11:36:56.095Z,28.07
2022-08-25T11:39:41.102Z,28.05
2022-08-25T11:42:27.142Z,28.24
2022-08-25T11:45:03.637Z,28.41
2022-08-25T11:48:02.173Z,28.39
2022-08-25T11:50:35.082Z,28.47
2022-08-25T11:53:23.670Z,28.46
2022-08-25T11:55:58.775Z,28.51
2022-08-25T11:58:47.604Z,28.64
2022-08-25T12:01:57.358Z,28.77
2022-08-25T12:04:44.250Z,28.81
2022-08-25T12:07:28.869Z,28.82
2022-08-25T12:10:19.472Z,28.87
2022-08-25T12:13:04.818Z,28.96
2022-08-25T12:16:03.180Z,28.93
2022-08-25T12:18:45.646Z,28.95
2022-08-25T12:21:17.660Z,28.98
2022-08-25T12:24:05.137Z,29.05
2022-08-25T12:26:43.015Z,28.98
2022-08-25T12:29:21.541Z,29.09
2022-08-25T12:32:20.131Z,29.19
2022-08-25T12:35:17.274Z,29.19
2022-08-25T12:37:56.736Z,29.14
2022-08-25T12:40:29.096Z,29.16
2022-08-25T12:43:26.331Z,29.22
2022-08-25T12:45:56.443Z,29.20
2022-08-25T12:48:56.988Z,29.14
2022-08-25T12:51:27.968Z,29.18
2022-08-25T12:54:01.997Z,29.20
2022-08-25T12:56:39.448Z,29.32
2022-08-25T12:59:18.439Z,29.31
2022-08-25T13:02:14.014Z,29.45
2022-08-25T13:05:02.709Z,29.50
2022-08-25T13:07:47.580Z,29.51
2022-08-25T13:10:44.789Z,29.57
2022-08-25T13:13:20.927Z,29.63
2022-08-25T13:16:00.284Z,29.85
2022-08-25T13:18:30.845Z,30.02
2022-08-25T13:21:09.727Z,30.19
2022-08-25T13:23:42.068Z,30.33
2022-08-25T13:26:13.836Z,30.34
2022-08-25T13:28:50.394Z,30.39
2022-08-25T13:31:22.146Z,30.36
2022-08-25T13:33:55.661Z,30.39
2022-08-25T13:36:47.482Z,30.40
2022-08-25T13:39:45.679Z,30.44
2022-08-25T13:42:15.321Z,30.46
2022-08-25T13:44:52.456Z,30.57
2022-08-25T13:47:45.370Z,30.53
2022-08-25T13:50:20.294Z,30.55
2022-08-25T13:52:52.125Z,30.73
2022-08-25T13:55:27.408Z,30.89
2022-08-25T13:57:55.751Z,31.00
2022-08-25T14:00:33.122Z,31.11
2022-08-25T14:03:08.725Z,31.21
2022-08-25T14:05:45.583Z,31.06
2022-08-25T14:11:14.923Z,31.22
2022-08-25T14:13:46.049Z,31.42
2022-08-25T14:16:20.813Z,31.64
2022-08-25T14:18:53.292Z,31.52
2022-08-25T14:21:24.813Z,31.29
2022-08-25T14:23:54.312Z,31.23
2022-08-25T14:26:23.999Z,31.40
2022-08-25T14:28:54.670Z,31.55
2022-08-25T14:31:28.560Z,31.65
2022-08-25T14:34:00.618Z,31.56
2022-08-25T14:36:32.458Z,31.76
2022-08-25T14:39:00.587Z,31.97
2022-08-25T14:41:31.066Z,32.07
2022-08-25T14:43:59.127Z,32.02
2022-08-25T14:46:33.875Z,32.07
2022-08-25T14:49:05.776Z,32.25
2022-08-25T14:51:36.205Z,32.34
2022-08-25T14:54:07.862Z,32.36
2022-08-25T14:56:38.363Z,32.38
2022-08-25T14:59:11.184Z,32.39
2022-08-25T15:01:39.195Z,32.42
2022-08-25T15:04:10.628Z,32.49
2022-08-25T15:06:41.915Z,32.67
2022-08-25T15:09:13.628Z,32.78
2022-08-25T15:11:45.082Z,32.77
2022-08-25T15:14:15.640Z,32.63
2022-08-25T15:16:46.428Z,32.42
2022-08-25T15:19:17.306Z,32.51
2022-08-25T15:21:46.847Z,32.68
2022-08-25T15:24:17.220Z,32.57
2022-08-25T15:29:25.438Z,32.28
2022-08-25T15:31:53.677Z,32.47
2022-08-25T15:34:21.740Z,32.59
2022-08-25T15:36:50.316Z,32.72
2022-08-25T15:39:19.589Z,32.79
2022-08-25T15:41:52.170Z,32.73
2022-08-25T15:44:20.440Z,32.81
2022-08-25T15:46:50.166Z,32.53
2022-08-25T15:49:20.934Z,32.42
2022-08-25T15:51:52.423Z,32.58
2022-08-25T15:54:20.745Z,32.83
2022-08-25T15:56:50.336Z,32.88
2022-08-25T15:59:21.710Z,32.55
2022-08-25T16:01:53.438Z,32.68
2022-08-25T16:04:22.507Z,32.67
2022-08-25T16:06:51.921Z,32.49
2022-08-25T16:09:22.871Z,32.58
2022-08-25T16:11:55.707Z,32.75
2022-08-25T16:14:26.106Z,32.74
2022-08-25T16:16:58.218Z,32.89
2022-08-25T16:19:28.505Z,32.96
2022-08-25T16:21:56.792Z,33.07
2022-08-25T16:24:25.271Z,33.12
2022-08-25T16:26:55.806Z,33.13
2022-08-25T16:29:24.093Z,33.36
2022-08-25T16:31:53.234Z,32.97
2022-08-25T16:34:24.598Z,32.39
2022-08-25T16:36:53.251Z,31.94
2022-08-25T16:39:21.263Z,31.48
2022-08-25T16:41:50.179Z,31.10
2022-08-25T16:44:22.708Z,30.93
2022-08-25T16:46:54.369Z,30.70
2022-08-25T16:49:24.169Z,30.64
2022-08-25T16:51:57.081Z,30.62
2022-08-25T16:54:43.989Z,30.51
2022-08-25T16:57:12.215Z,30.32
2022-08-25T16:59:42.580Z,30.22
2022-08-25T17:02:12.210Z,30.17
2022-08-25T17:04:40.822Z,30.10
2022-08-25T17:07:09.047Z,30.03
2022-08-25T17:09:37.212Z,29.97
2022-08-25T17:12:05.616Z,29.94
2022-08-25T17:14:33.674Z,29.86
2022-08-25T17:17:04.070Z,29.68
2022-08-25T17:19:35.339Z,29.55
2022-08-25T17:22:03.364Z,29.42
2022-08-25T17:24:33.754Z,29.29
2022-08-25T17:27:02.806Z,29.13
2022-08-25T17:29:30.853Z,29.03
2022-08-25T17:31:59.355Z,28.95
2022-08-25T17:34:29.153Z,28.86
2022-08-25T17:36:59.687Z,28.77
2022-08-25T17:39:28.594Z,28.72
2022-08-25T17:41:56.622Z,28.60
2022-08-25T17:44:24.662Z,28.44
2022-08-25T17:46:52.730Z,28.34
2022-08-25T17:49:20.746Z,28.33
2022-08-25T17:51:50.204Z,28.37
2022-08-25T17:54:18.851Z,28.31
2022-08-25T17:56:46.809Z,28.28
2022-08-25T17:59:16.416Z,28.24
2022-08-25T18:01:45.673Z,28.20
2022-08-25T18:04:15.633Z,28.22
2022-08-25T18:06:46.820Z,28.20
2022-08-25T18:09:17.397Z,28.22
2022-08-25T18:11:46.090Z,28.13
2022-08-25T18:14:16.701Z,28.12
2022-08-25T18:16:44.804Z,28.11
2022-08-25T18:19:14.379Z,28.03
2022-08-25T18:21:43.614Z,27.93
2022-08-25T18:24:13.473Z,27.83
2022-08-25T18:26:43.076Z,27.77
2022-08-25T18:29:13.274Z,27.74
2022-08-25T18:31:42.439Z,27.67
2022-08-25T18:34:11.631Z,27.61
2022-08-25T18:36:41.781Z,27.53
2022-08-25T18:39:30.501Z,27.45
2022-08-25T18:42:03.870Z,27.37
2022-08-25T18:44:33.310Z,27.31
2022-08-25T18:47:06.495Z,27.30
2022-08-25T18:49:37.137Z,27.26
2022-08-25T18:52:07.458Z,27.24
2022-08-25T18:54:36.002Z,27.18
2022-08-25T18:57:08.160Z,27.11
2022-08-25T18:59:37.163Z,27.00
2022-08-25T19:02:05.528Z,26.91
2022-08-25T19:04:33.685Z,26.88
2022-08-25T19:07:02.024Z,26.85
2022-08-25T19:09:31.858Z,26.81
2022-08-25T19:11:59.858Z,26.75
2022-08-25T19:14:29.836Z,26.76
2022-08-25T19:16:59.406Z,26.70
2022-08-25T19:19:29.149Z,26.67
2022-08-25T19:21:58.045Z,26.65
2022-08-25T19:24:28.242Z,26.63
2022-08-25T19:26:56.926Z,26.60
2022-08-25T19:29:26.232Z,26.60
2022-08-25T19:31:56.747Z,26.58
2022-08-25T19:34:38.168Z,26.55
2022-08-25T19:37:07.308Z,26.52
2022-08-25T19:39:39.270Z,26.48
2022-08-25T19:42:08.550Z,26.42
2022-08-25T19:44:56.791Z,26.34
2022-08-25T19:47:26.203Z,26.30
2022-08-25T19:49:55.334Z,26.29
2022-08-25T19:52:26.526Z,26.29
2022-08-25T19:54:54.826Z,26.32
2022-08-25T19:57:28.650Z,26.29
2022-08-25T20:00:15.144Z,26.25
2022-08-25T20:02:45.855Z,26.25
2022-08-25T20:05:15.473Z,26.26
2022-08-25T20:07:52.035Z,26.28
2022-08-25T20:10:20.876Z,26.28
2022-08-25T20:12:49.043Z,26.26
2022-08-25T20:15:17.616Z,26.05
2022-08-25T20:17:47.608Z,25.87
2022-08-25T20:20:18.804Z,25.78
2022-08-25T20:22:47.820Z,25.50
2022-08-25T20:25:17.613Z,25.46
2022-08-25T20:27:50.170Z,25.53
2022-08-25T20:30:22.916Z,25.66
2022-08-25T20:32:54.485Z,25.76
2022-08-25T20:35:26.586Z,25.79
2022-08-25T20:37:56.242Z,25.80
2022-08-25T20:40:26.253Z,25.80
2022-08-25T20:42:54.806Z,25.81
2022-08-25T20:45:23.340Z,25.81
2022-08-25T20:47:53.047Z,25.82
2022-08-25T20:50:22.846Z,25.82
2022-08-25T20:52:52.155Z,25.82
2022-08-25T20:55:20.556Z,25.79
2022-08-25T20:57:49.520Z,25.76
2022-08-25T21:00:19.424Z,25.73
2022-08-25T21:02:54.131Z,25.72
2022-08-25T21:05:22.600Z,25.70
2022-08-25T21:07:50.594Z,25.71
2022-08-25T21:10:19.029Z,25.67
2022-08-25T21:12:49.105Z,25.60
2022-08-25T21:15:21.455Z,25.58
2022-08-25T21:17:54.399Z,25.57
2022-08-25T21:20:24.748Z,25.54
2022-08-25T21:22:53.435Z,25.51
2022-08-25T21:25:21.830Z,25.52
2022-08-25T21:27:49.879Z,25.48
2022-08-25T21:30:18.822Z,25.46
2022-08-25T21:32:53.336Z,25.41
2022-08-25T21:35:23.733Z,25.36
2022-08-25T21:37:52.993Z,25.36
2022-08-25T21:40:22.771Z,25.33
2022-08-25T21:42:51.091Z,25.33
2022-08-25T21:45:21.041Z,25.32
2022-08-25T21:47:50.032Z,25.31
2022-08-25T21:50:20.020Z,25.28
2022-08-25T21:52:54.273Z,25.32
2022-08-25T21:55:23.374Z,25.32
2022-08-25T21:57:51.528Z,25.34
2022-08-25T22:00:21.418Z,25.34
2022-08-25T22:02:49.798Z,25.27
2022-08-25T22:05:18.039Z,25.24
2022-08-25T22:07:46.155Z,25.22
2022-08-25T22:10:16.750Z,25.16
2022-08-25T22:12:46.162Z,25.14
2022-08-25T22:15:15.616Z,25.15
2022-08-25T22:17:43.660Z,25.14
2022-08-25T22:20:12.803Z,25.01
2022-08-25T22:22:40.866Z,24.99
2022-08-25T22:25:09.388Z,25.01
2022-08-25T22:27:38.918Z,25.08
2022-08-25T22:30:08.928Z,25.06
2022-08-25T22:32:36.909Z,25.03
2022-08-25T22:35:05.764Z,25.05
2022-08-25T22:37:34.124Z,25.07
2022-08-25T22:40:05.261Z,25.02
2022-08-25T22:42:33.333Z,24.99
2022-08-25T22:45:02.726Z,24.98
2022-08-25T22:47:31.234Z,24.94
2022-08-25T22:49:59.477Z,24.87
2022-08-25T22:52:33.317Z,24.87
2022-08-25T22:55:02.818Z,24.86
2022-08-25T22:57:30.911Z,24.88
2022-08-25T22:59:59.292Z,24.88
2022-08-25T23:02:30.292Z,24.87
2022-08-25T23:05:00.918Z,24.89
2022-08-25T23:07:29.875Z,24.84
2022-08-25T23:09:59.730Z,24.90
2022-08-25T23:12:27.746Z,24.96
2022-08-25T23:14:55.852Z,24.97
2022-08-25T23:17:23.811Z,24.92
2022-08-25T23:19:53.145Z,24.85
2022-08-25T23:22:20.175Z,24.82
2022-08-25T23:24:52.772Z,24.71
2022-08-25T23:27:22.651Z,24.66
2022-08-25T23:29:51.217Z,24.66
2022-08-25T23:32:19.624Z,24.69
2022-08-25T23:34:48.037Z,24.75
2022-08-25T23:37:18.514Z,24.70
2022-08-25T23:39:49.823Z,24.69
2022-08-25T23:42:19.511Z,24.73
2022-08-25T23:44:48.083Z,24.73
2022-08-25T23:47:16.152Z,24.82
2022-08-25T23:49:44.229Z,24.84
2022-08-25T23:52:12.317Z,24.73
2022-08-25T23:54:41.637Z,24.68
2022-08-25T23:57:09.584Z,24.61
2022-08-25T23:59:38.338Z,24.57
